Time;durP1;ratioP1;P1;durP2;ratioP2;P2;SDS_P1;SDS_P2;PMS_P1;PMS_P2;Temp;Humidity;BMP_temperature;BMP_pressure;BME280_temperature;BME280_humidity;BME280_pressure;Samples;Min_cycle;Max_cycle;Signal;HPM_P1;HPM_P2
2022/11/14 00:00:24;;;;;;;94.95;61.80;;;6.90;99.90;;;;;;5005542;28;20049;-77
2022/11/14 00:03:09;;;;;;;111.30;71.80;;;6.90;99.90;;;;;;5002654;28;20727;-77
2022/11/14 00:05:53;;;;;;;98.85;65.75;;;6.90;99.90;;;;;;5012755;28;20526;-77
2022/11/14 00:08:38;;;;;;;94.10;62.40;;;6.90;99.90;;;;;;5009751;28;20048;-76
2022/11/14 00:11:23;;;;;;;96.45;63.00;;;6.80;99.90;;;;;;5000690;28;20053;-77
2022/11/14 00:14:09;;;;;;;97.75;63.58;;;6.80;99.90;;;;;;5010052;28;20594;-78
2022/11/14 00:16:53;;;;;;;95.72;63.03;;;6.90;99.90;;;;;;5012438;28;20056;-77
2022/11/14 00:19:38;;;;;;;96.82;66.75;;;6.80;99.90;;;;;;5009597;28;20551;-77
2022/11/14 00:22:22;;;;;;;95.35;63.88;;;6.80;99.90;;;;;;5006560;28;20129;-76
2022/11/14 00:25:06;;;;;;;92.97;63.17;;;6.80;99.90;;;;;;5005668;28;20564;-77
2022/11/14 00:27:51;;;;;;;86.97;58.92;;;6.70;99.90;;;;;;5007413;28;20053;-78
2022/11/14 00:30:35;;;;;;;91.15;57.58;;;6.60;99.90;;;;;;5011820;28;20188;-77
2022/11/14 00:33:20;;;;;;;79.95;56.00;;;6.60;99.90;;;;;;5007655;28;20129;-76
2022/11/14 00:36:04;;;;;;;90.35;58.28;;;6.70;99.90;;;;;;5008117;28;20044;-76
2022/11/14 00:38:53;;;;;;;86.22;58.28;;;6.60;99.90;;;;;;5011525;28;20045;-76
2022/11/14 00:41:38;;;;;;;82.50;51.70;;;6.70;99.90;;;;;;5010760;28;20048;-76
2022/11/14 00:44:22;;;;;;;88.18;61.40;;;6.70;99.90;;;;;;5007362;28;20568;-77
2022/11/14 00:47:06;;;;;;;102.55;67.15;;;6.60;99.90;;;;;;5010117;28;20076;-76
2022/11/14 00:49:51;;;;;;;105.63;70.60;;;6.50;99.90;;;;;;5012069;28;20041;-76
2022/11/14 00:52:35;;;;;;;108.80;72.25;;;6.50;99.90;;;;;;5012340;28;20100;-77
2022/11/14 00:55:20;;;;;;;91.18;59.10;;;6.50;99.90;;;;;;5011884;28;20064;-77
2022/11/14 00:58:05;;;;;;;98.60;65.35;;;6.50;99.90;;;;;;5012053;28;20052;-77
2022/11/14 01:00:50;;;;;;;87.75;59.15;;;6.40;99.90;;;;;;4998983;28;20159;-77
2022/11/14 01:03:35;;;;;;;88.85;58.72;;;6.40;99.90;;;;;;5007705;28;20045;-77
2022/11/14 01:06:19;;;;;;;89.07;59.03;;;6.40;99.90;;;;;;5002952;28;20083;-77
2022/11/14 01:09:04;;;;;;;89.30;56.60;;;6.50;99.90;;;;;;5011877;28;20045;-77
2022/11/14 01:11:48;;;;;;;101.68;65.28;;;6.50;99.90;;;;;;5011949;28;20600;-77
2022/11/14 01:14:33;;;;;;;99.28;62.97;;;6.40;99.90;;;;;;5012112;28;20499;-77
2022/11/14 01:17:18;;;;;;;98.40;62.25;;;6.30;99.90;;;;;;5011687;28;20052;-77
2022/11/14 01:20:03;;;;;;;101.63;65.57;;;6.30;99.90;;;;;;5011807;28;20049;-77
2022/11/14 01:22:47;;;;;;;98.47;65.60;;;6.20;99.90;;;;;;4998476;28;20037;-77
2022/11/14 01:25:34;;;;;;;86.22;58.63;;;6.30;99.90;;;;;;5011989;28;20057;-77
2022/11/14 01:28:19;;;;;;;92.95;57.58;;;6.30;99.90;;;;;;5004014;28;20076;-76
2022/11/14 01:31:08;;;;;;;82.68;56.38;;;6.30;99.90;;;;;;5009990;28;20096;-76
2022/11/14 01:33:55;;;;;;;84.70;56.33;;;6.30;99.90;;;;;;5011788;28;20048;-76
2022/11/14 01:36:40;;;;;;;87.38;56.67;;;6.30;99.90;;;;;;5002147;28;20052;-76
2022/11/14 01:39:27;;;;;;;84.32;53.25;;;6.40;99.90;;;;;;4994477;28;20049;-78
2022/11/14 01:42:11;;;;;;;88.82;58.25;;;6.30;99.90;;;;;;5006447;28;20064;-78
2022/11/14 01:44:57;;;;;;;90.25;59.28;;;6.30;99.90;;;;;;5015374;28;20040;-77
2022/11/14 01:47:42;;;;;;;94.18;59.75;;;6.30;99.90;;;;;;5010591;28;20109;-78
2022/11/14 01:50:27;;;;;;;102.72;60.58;;;6.20;99.90;;;;;;5013048;28;20408;-78
2022/11/14 01:53:11;;;;;;;107.38;64.07;;;6.20;99.90;;;;;;5015262;28;20048;-77
2022/11/14 01:56:00;;;;;;;105.60;64.05;;;6.20;99.90;;;;;;5003904;28;20112;-78
2022/11/14 01:58:51;;;;;;;101.25;63.70;;;6.10;99.90;;;;;;5012732;28;20045;-77
2022/11/14 02:01:41;;;;;;;106.32;65.65;;;6.10;99.90;;;;;;5010895;28;20049;-77
2022/11/14 02:04:36;;;;;;;103.22;65.05;;;6.10;99.90;;;;;;5007677;28;20037;-77
2022/11/14 02:07:23;;;;;;;89.53;57.45;;;6.10;99.90;;;;;;5012751;28;20048;-77
2022/11/14 02:10:15;;;;;;;98.13;60.05;;;6.00;99.90;;;;;;5005432;28;20045;-78
2022/11/14 02:13:00;;;;;;;90.57;59.38;;;6.00;99.90;;;;;;5002366;28;20048;-77
2022/11/14 02:15:45;;;;;;;89.55;57.20;;;6.00;99.90;;;;;;5008706;28;20033;-77
2022/11/14 02:18:29;;;;;;;80.68;52.60;;;5.90;99.90;;;;;;5005468;28;20103;-78
2022/11/14 02:21:13;;;;;;;83.75;53.78;;;5.90;99.90;;;;;;5011249;28;20045;-77
2022/11/14 02:23:58;;;;;;;75.72;51.35;;;6.00;99.90;;;;;;5014680;28;20070;-77
2022/11/14 02:26:43;;;;;;;76.78;50.42;;;6.00;99.90;;;;;;5014911;28;20084;-77
2022/11/14 02:29:27;;;;;;;68.53;50.60;;;6.10;99.90;;;;;;5014742;28;20567;-78
2022/11/14 02:32:11;;;;;;;71.10;47.83;;;6.10;99.90;;;;;;5012371;28;20061;-77
2022/11/14 02:34:56;;;;;;;69.78;49.30;;;6.20;99.90;;;;;;5001040;28;20550;-76
2022/11/14 02:37:44;;;;;;;71.28;48.40;;;6.20;99.90;;;;;;5012405;28;20084;-79
2022/11/14 02:40:28;;;;;;;64.82;42.92;;;6.00;99.90;;;;;;5013753;28;20033;-77
2022/11/14 02:43:12;;;;;;;63.38;46.60;;;6.00;99.90;;;;;;5006380;28;20044;-77
2022/11/14 02:45:57;;;;;;;76.65;52.53;;;6.10;99.90;;;;;;5014428;28;20118;-77
2022/11/14 02:48:42;;;;;;;76.50;50.20;;;6.10;99.90;;;;;;5014199;28;20048;-78
2022/11/14 02:51:26;;;;;;;83.05;54.95;;;6.10;99.90;;;;;;5007502;28;20045;-76
2022/11/14 02:54:11;;;;;;;74.50;50.05;;;6.10;99.90;;;;;;4999358;28;20096;-77
2022/11/14 02:56:55;;;;;;;64.22;43.75;;;6.10;99.90;;;;;;5008140;28;20518;-77
2022/11/14 02:59:40;;;;;;;63.58;44.45;;;6.00;99.90;;;;;;4999803;28;20032;-76
2022/11/14 03:02:25;;;;;;;58.65;42.22;;;6.00;99.90;;;;;;4993421;28;20037;-76
2022/11/14 03:05:09;;;;;;;69.85;49.15;;;5.90;99.90;;;;;;5001133;28;20042;-76
2022/11/14 03:07:54;;;;;;;70.70;49.25;;;5.90;99.90;;;;;;4993243;28;20121;-77
2022/11/14 03:10:39;;;;;;;66.07;46.17;;;5.90;99.90;;;;;;4997237;28;20095;-77
2022/11/14 03:13:28;;;;;;;73.72;50.63;;;5.90;99.90;;;;;;5003808;28;20487;-77
2022/11/14 03:16:13;;;;;;;98.85;62.20;;;6.00;99.90;;;;;;4995251;28;20045;-76
2022/11/14 03:18:57;;;;;;;114.50;69.03;;;6.00;99.90;;;;;;4992790;28;20041;-76
2022/11/14 03:21:42;;;;;;;143.55;63.03;;;6.10;99.90;;;;;;4995861;28;20049;-77
2022/11/14 03:24:26;;;;;;;158.13;61.00;;;5.90;99.90;;;;;;4996418;28;20397;-77
2022/11/14 03:27:11;;;;;;;268.52;84.28;;;5.90;99.90;;;;;;4992775;28;20045;-76
2022/11/14 03:29:56;;;;;;;101.97;59.83;;;5.70;99.90;;;;;;4999047;28;20396;-76
2022/11/14 03:32:40;;;;;;;96.22;59.80;;;5.70;99.90;;;;;;4996045;28;20092;-77
2022/11/14 03:35:25;;;;;;;81.35;54.75;;;5.80;99.90;;;;;;4992309;28;20085;-76
2022/11/14 03:38:10;;;;;;;105.97;60.20;;;5.80;99.90;;;;;;4996655;28;20097;-78
2022/11/14 03:40:56;;;;;;;74.28;51.67;;;5.70;99.90;;;;;;4996416;28;20041;-77
2022/11/14 03:43:41;;;;;;;77.80;54.03;;;5.70;99.90;;;;;;4998567;28;20542;-76
2022/11/14 03:46:25;;;;;;;85.88;58.97;;;5.70;99.90;;;;;;4992353;28;20049;-76
2022/11/14 03:49:10;;;;;;;77.78;53.55;;;5.50;99.90;;;;;;5000516;28;20092;-76
2022/11/14 03:51:54;;;;;;;74.80;51.92;;;5.50;99.90;;;;;;4999887;28;20100;-76
2022/11/14 03:54:39;;;;;;;82.43;54.88;;;5.50;99.90;;;;;;4991893;28;20029;-77
2022/11/14 03:57:24;;;;;;;78.47;52.55;;;5.40;99.90;;;;;;4995906;28;20049;-78
2022/11/14 04:00:09;;;;;;;94.63;60.83;;;5.50;99.90;;;;;;4996228;28;20566;-76
2022/11/14 04:02:54;;;;;;;83.55;55.05;;;5.60;99.90;;;;;;4996927;28;20145;-77
2022/11/14 04:05:44;;;;;;;124.57;64.47;;;5.60;99.90;;;;;;5012063;28;20622;-77
2022/11/14 04:08:28;;;;;;;84.25;52.97;;;5.60;99.90;;;;;;5009423;28;20064;-76
2022/11/14 04:11:13;;;;;;;70.22;49.78;;;5.60;99.90;;;;;;5012836;28;20088;-76
2022/11/14 04:13:57;;;;;;;79.40;49.30;;;5.60;99.90;;;;;;5012560;28;20499;-76
2022/11/14 04:16:41;;;;;;;70.82;48.47;;;5.60;99.90;;;;;;5012423;28;20143;-77
2022/11/14 04:19:25;;;;;;;91.07;51.10;;;5.60;99.90;;;;;;5000396;28;20072;-77
2022/11/14 04:22:10;;;;;;;96.47;57.22;;;5.60;99.90;;;;;;5012883;28;20052;-77
2022/11/14 04:24:54;;;;;;;82.72;51.30;;;5.50;99.90;;;;;;5012337;28;20111;-76
2022/11/14 04:27:38;;;;;;;92.18;58.92;;;5.50;99.90;;;;;;5011207;28;20049;-77
2022/11/14 04:30:23;;;;;;;88.30;56.92;;;5.60;99.90;;;;;;5012343;28;20092;-77
2022/11/14 04:33:07;;;;;;;107.85;58.60;;;5.50;99.90;;;;;;5012491;28;20088;-76
2022/11/14 04:35:52;;;;;;;125.72;66.03;;;5.50;99.90;;;;;;5012137;28;20404;-76
2022/11/14 04:38:38;;;;;;;116.97;67.80;;;5.30;99.90;;;;;;5011462;28;20044;-76
2022/11/14 04:41:23;;;;;;;106.32;61.63;;;5.40;99.90;;;;;;5012357;28;20052;-76
2022/11/14 04:44:07;;;;;;;102.88;60.30;;;5.40;99.90;;;;;;5012116;28;20435;-76
2022/11/14 04:46:52;;;;;;;111.70;62.58;;;5.40;99.90;;;;;;5012221;28;20049;-76
2022/11/14 04:49:36;;;;;;;95.72;60.88;;;5.40;99.90;;;;;;5000769;28;20561;-75
2022/11/14 04:52:21;;;;;;;88.95;54.17;;;5.40;99.90;;;;;;5008913;28;20432;-76
2022/11/14 04:55:06;;;;;;;102.25;59.95;;;5.30;99.90;;;;;;5006411;28;20104;-76
2022/11/14 04:57:55;;;;;;;101.65;57.83;;;5.30;99.90;;;;;;4998889;28;20033;-76
2022/11/14 05:00:40;;;;;;;97.22;57.95;;;5.30;99.90;;;;;;5010271;28;20506;-75
2022/11/14 05:03:25;;;;;;;93.82;57.55;;;5.20;99.90;;;;;;5012216;28;20507;-75
2022/11/14 05:06:10;;;;;;;115.05;65.25;;;5.30;99.90;;;;;;4999838;28;20045;-77
2022/11/14 05:08:54;;;;;;;99.40;58.67;;;5.30;99.90;;;;;;5011507;28;20088;-77
2022/11/14 05:11:38;;;;;;;209.52;110.00;;;5.30;99.90;;;;;;5011935;28;20084;-76
2022/11/14 05:14:23;;;;;;;108.25;65.90;;;5.30;99.90;;;;;;5012845;28;20040;-76
2022/11/14 05:17:08;;;;;;;187.50;97.60;;;5.30;99.90;;;;;;5015473;28;20405;-78
2022/11/14 05:19:52;;;;;;;104.50;62.25;;;5.30;99.90;;;;;;5016013;28;20036;-77
2022/11/14 05:22:37;;;;;;;125.93;85.57;;;5.30;99.90;;;;;;5013193;28;20091;-77
2022/11/14 05:25:22;;;;;;;119.13;67.80;;;5.30;99.90;;;;;;5015105;28;20541;-75
2022/11/14 05:28:06;;;;;;;104.03;70.43;;;5.40;99.90;;;;;;5015783;28;20056;-76
2022/11/14 05:30:51;;;;;;;101.18;65.47;;;5.30;99.90;;;;;;5015409;28;20053;-76
2022/11/14 05:33:35;;;;;;;95.95;58.95;;;5.30;99.90;;;;;;5014887;28;20041;-75
2022/11/14 05:36:20;;;;;;;83.88;50.17;;;5.20;99.90;;;;;;5015479;28;20076;-74
2022/11/14 05:39:04;;;;;;;71.53;47.90;;;5.20;99.90;;;;;;5015205;28;20126;-74
2022/11/14 05:41:49;;;;;;;97.90;54.58;;;5.20;99.90;;;;;;5015423;28;20096;-75
2022/11/14 05:44:34;;;;;;;86.97;53.85;;;5.20;99.90;;;;;;5015200;28;20060;-74
2022/11/14 05:47:18;;;;;;;78.07;49.83;;;5.20;99.90;;;;;;5015168;28;20106;-73
2022/11/14 05:50:03;;;;;;;81.38;49.58;;;5.20;99.90;;;;;;5014369;28;20580;-73
2022/11/14 05:52:48;;;;;;;101.18;53.63;;;5.00;99.90;;;;;;5015289;28;20542;-73
2022/11/14 05:55:32;;;;;;;60.35;40.35;;;5.00;99.90;;;;;;5014703;28;20072;-73
2022/11/14 05:58:16;;;;;;;68.53;42.67;;;5.10;99.90;;;;;;5015040;28;20048;-73
2022/11/14 06:01:02;;;;;;;71.40;42.95;;;5.20;99.90;;;;;;5010451;28;20045;-75
2022/11/14 06:03:47;;;;;;;67.90;42.03;;;5.20;99.90;;;;;;5014234;28;20447;-73
2022/11/14 06:06:32;;;;;;;78.82;43.78;;;5.30;99.90;;;;;;5014199;28;20400;-72
2022/11/14 06:09:16;;;;;;;77.30;45.17;;;5.40;99.90;;;;;;5014042;28;20048;-75
2022/11/14 06:12:04;;;;;;;78.53;43.50;;;5.40;99.90;;;;;;5014786;28;20096;-76
2022/11/14 06:14:49;;;;;;;76.00;42.05;;;5.50;99.90;;;;;;5002833;28;20069;-74
2022/11/14 06:17:33;;;;;;;80.72;41.92;;;5.50;99.90;;;;;;5014343;28;20056;-73
2022/11/14 06:20:18;;;;;;;69.18;37.63;;;5.60;99.90;;;;;;5014466;28;20467;-72
2022/11/14 06:23:03;;;;;;;105.60;53.45;;;5.60;99.90;;;;;;5009096;28;20495;-73
2022/11/14 06:25:47;;;;;;;65.25;41.45;;;5.70;99.90;;;;;;4997210;28;20119;-74
2022/11/14 06:28:32;;;;;;;71.68;38.22;;;5.70;99.90;;;;;;5014713;28;20049;-76
2022/11/14 06:31:18;;;;;;;109.28;51.55;;;5.70;99.90;;;;;;5014545;28;20080;-74
2022/11/14 06:34:04;;;;;;;100.38;50.53;;;5.60;99.90;;;;;;5010298;28;20089;-73
2022/11/14 06:36:49;;;;;;;177.50;76.57;;;5.60;99.90;;;;;;5002264;28;20084;-73
2022/11/14 06:39:33;;;;;;;101.10;61.33;;;5.40;99.90;;;;;;5007540;28;20120;-76
2022/11/14 06:42:18;;;;;;;117.03;59.38;;;5.50;99.90;;;;;;5013015;28;20033;-74
2022/11/14 06:45:03;;;;;;;99.10;56.95;;;5.50;99.90;;;;;;5013934;28;20045;-73
2022/11/14 06:47:47;;;;;;;93.80;57.17;;;5.50;99.90;;;;;;5014582;28;20045;-74
2022/11/14 06:50:31;;;;;;;86.30;55.38;;;5.60;99.90;;;;;;5013133;28;20538;-74
2022/11/14 06:53:15;;;;;;;78.80;51.33;;;5.70;99.90;;;;;;5013215;28;20598;-74
2022/11/14 06:56:09;;;;;;;96.22;55.55;;;5.80;99.90;;;;;;5013547;28;20125;-74
2022/11/14 06:58:53;;;;;;;75.03;51.40;;;5.90;99.90;;;;;;5013382;28;20141;-74
2022/11/14 07:01:38;;;;;;;89.07;52.67;;;6.00;99.90;;;;;;5013280;28;20392;-73
2022/11/14 07:04:22;;;;;;;81.43;48.05;;;6.10;99.90;;;;;;5016501;28;20092;-74
2022/11/14 07:07:06;;;;;;;86.32;48.25;;;6.30;99.90;;;;;;5013609;28;20432;-76
2022/11/14 07:09:53;;;;;;;94.97;48.92;;;6.40;99.90;;;;;;5013767;28;20081;-74
2022/11/14 07:12:37;;;;;;;103.35;48.70;;;6.50;99.90;;;;;;5013350;28;20048;-74
2022/11/14 07:15:21;;;;;;;93.25;45.30;;;6.50;99.90;;;;;;5013475;28;20506;-74
2022/11/14 07:18:06;;;;;;;96.45;50.00;;;6.50;99.90;;;;;;5000734;28;20519;-74
2022/11/14 07:20:57;;;;;;;100.18;50.92;;;6.40;99.90;;;;;;5013578;28;20045;-77
2022/11/14 07:23:42;;;;;;;125.05;50.72;;;6.60;99.90;;;;;;5013652;28;20069;-77
2022/11/14 07:26:26;;;;;;;165.07;59.22;;;6.60;99.90;;;;;;5012511;28;20037;-77
2022/11/14 07:29:11;;;;;;;136.55;52.60;;;6.50;99.90;;;;;;5011197;28;20052;-78
2022/11/14 07:31:55;;;;;;;145.38;56.47;;;6.60;99.90;;;;;;5012210;28;20589;-76
2022/11/14 07:34:40;;;;;;;119.35;56.78;;;6.50;99.90;;;;;;5013150;28;20033;-74
2022/11/14 07:37:24;;;;;;;125.28;60.42;;;6.60;99.90;;;;;;5010669;28;20108;-75
2022/11/14 07:40:09;;;;;;;111.97;55.30;;;6.50;99.90;;;;;;5025194;28;20080;-75
2022/11/14 07:43:00;;;;;;;119.70;57.10;;;6.60;99.90;;;;;;5012569;28;20604;-74
2022/11/14 07:45:45;;;;;;;98.20;53.35;;;6.70;99.90;;;;;;5004310;28;20491;-77
2022/11/14 07:48:30;;;;;;;106.97;56.05;;;6.80;99.90;;;;;;5012143;28;20045;-74
2022/11/14 07:51:17;;;;;;;145.02;55.33;;;7.00;99.90;;;;;;5012766;28;20177;-74
2022/11/14 07:54:01;;;;;;;114.30;48.65;;;6.80;99.90;;;;;;5012700;28;20171;-74
2022/11/14 07:56:46;;;;;;;104.70;51.90;;;6.90;99.90;;;;;;5025790;28;20100;-74
2022/11/14 07:59:31;;;;;;;126.20;54.80;;;7.00;99.90;;;;;;5012229;28;20045;-73
2022/11/14 08:02:15;;;;;;;123.10;52.90;;;7.00;99.90;;;;;;5012523;28;20088;-76
2022/11/14 08:05:00;;;;;;;108.35;53.67;;;7.00;99.90;;;;;;5012505;28;20427;-74
2022/11/14 08:07:44;;;;;;;115.88;56.10;;;7.00;99.90;;;;;;5012065;28;20032;-76
2022/11/14 08:10:29;;;;;;;115.15;57.45;;;7.10;99.90;;;;;;5011052;28;20061;-75
2022/11/14 08:13:13;;;;;;;109.22;53.35;;;7.20;99.90;;;;;;5009505;28;20096;-77
2022/11/14 08:15:59;;;;;;;112.63;56.17;;;7.20;99.90;;;;;;5012121;28;20165;-73
2022/11/14 08:18:43;;;;;;;161.35;66.10;;;7.30;99.90;;;;;;5011131;28;20107;-74
2022/11/14 08:21:28;;;;;;;129.43;58.63;;;7.30;99.90;;;;;;4999829;28;20107;-74
2022/11/14 08:24:13;;;;;;;98.45;56.40;;;7.50;99.90;;;;;;5012118;28;20068;-74
2022/11/14 08:26:57;;;;;;;102.18;55.47;;;7.60;99.90;;;;;;5013050;28;20117;-74
2022/11/14 08:29:42;;;;;;;100.47;54.97;;;7.90;99.90;;;;;;5009625;28;20048;-73
2022/11/14 08:32:26;;;;;;;111.85;57.53;;;7.90;99.90;;;;;;5011793;28;20045;-73
2022/11/14 08:35:11;;;;;;;101.35;56.53;;;8.00;99.90;;;;;;5010623;28;20080;-73
2022/11/14 08:37:55;;;;;;;99.95;56.42;;;8.10;99.90;;;;;;5010942;28;20045;-74
2022/11/14 08:40:39;;;;;;;107.18;58.88;;;8.30;99.90;;;;;;5009029;28;20096;-73
2022/11/14 08:43:25;;;;;;;97.95;56.60;;;8.20;99.90;;;;;;5011831;28;20040;-74
2022/11/14 08:46:09;;;;;;;117.95;57.47;;;8.30;99.90;;;;;;5012072;28;20040;-74
2022/11/14 08:48:54;;;;;;;118.30;62.28;;;8.40;99.90;;;;;;5004236;28;20096;-74
2022/11/14 08:51:38;;;;;;;108.00;59.53;;;8.30;99.90;;;;;;5012056;28;20538;-73
2022/11/14 08:54:23;;;;;;;103.13;58.17;;;8.30;99.90;;;;;;5012093;28;20502;-73
2022/11/14 08:57:08;;;;;;;100.80;58.75;;;8.40;99.90;;;;;;5012098;28;20131;-73
2022/11/14 08:59:54;;;;;;;101.57;61.45;;;8.50;99.90;;;;;;5011902;28;20041;-76
2022/11/14 09:02:39;;;;;;;92.68;58.88;;;8.60;99.90;;;;;;5010355;28;20088;-75
2022/11/14 09:05:23;;;;;;;102.05;57.17;;;8.60;99.90;;;;;;5011490;28;20558;-74
2022/11/14 09:08:08;;;;;;;108.55;58.10;;;8.50;99.90;;;;;;5012139;28;20392;-73
2022/11/14 09:10:52;;;;;;;103.07;61.35;;;8.60;99.90;;;;;;5011104;28;20108;-73
2022/11/14 09:13:36;;;;;;;106.68;59.42;;;8.80;99.90;;;;;;5011705;28;20448;-76
2022/11/14 09:16:21;;;;;;;111.43;62.28;;;8.80;99.90;;;;;;5010705;28;20139;-73
2022/11/14 09:19:06;;;;;;;104.20;61.10;;;8.90;99.90;;;;;;5011591;28;20053;-74
2022/11/14 09:21:50;;;;;;;97.78;57.90;;;9.00;99.90;;;;;;5010820;28;20033;-73
2022/11/14 09:24:34;;;;;;;97.10;57.00;;;9.10;99.90;;;;;;4998926;28;20037;-73
2022/11/14 09:27:19;;;;;;;91.93;55.78;;;9.10;99.90;;;;;;5011600;28;20041;-73
2022/11/14 09:30:04;;;;;;;87.63;51.85;;;9.30;99.90;;;;;;5011648;28;20069;-73
2022/11/14 09:32:49;;;;;;;99.32;58.45;;;9.40;99.90;;;;;;5010741;28;20061;-74
2022/11/14 09:35:36;;;;;;;90.15;55.03;;;9.40;99.90;;;;;;5011314;28;20041;-74
2022/11/14 09:38:20;;;;;;;88.15;51.58;;;9.40;99.90;;;;;;5006731;28;20057;-73
2022/11/14 09:41:08;;;;;;;82.55;49.42;;;9.50;99.90;;;;;;5011153;28;20088;-72
2022/11/14 09:44:20;;;;;;;83.13;52.92;;;9.60;99.90;;;;;;5011056;28;20060;-73
2022/11/14 09:47:20;;;;;;;87.70;52.47;;;9.70;99.90;;;;;;5008989;28;20033;-73
2022/11/14 09:50:21;;;;;;;88.50;50.72;;;9.80;99.90;;;;;;5009169;28;20045;-73
2022/11/14 09:53:29;;;;;;;81.63;49.28;;;9.70;99.90;;;;;;5011541;28;20104;-77
2022/11/14 09:56:21;;;;;;;81.18;50.47;;;9.80;99.90;;;;;;5000211;28;20044;-73
2022/11/14 09:59:10;;;;;;;77.72;48.70;;;10.00;99.90;;;;;;5009794;28;20100;-73
2022/11/14 10:02:09;;;;;;;85.90;49.88;;;10.00;99.90;;;;;;5013797;28;20135;-77
2022/11/14 10:05:17;;;;;;;82.03;53.13;;;10.10;99.90;;;;;;5013308;28;20041;-72
2022/11/14 10:08:12;;;;;;;79.15;50.13;;;10.30;99.90;;;;;;5008557;28;20049;-73
2022/11/14 10:11:05;;;;;;;80.30;50.75;;;10.30;99.90;;;;;;4998516;28;20129;-73
2022/11/14 10:13:58;;;;;;;73.35;48.58;;;10.40;99.90;;;;;;5002786;28;20462;-73
2022/11/14 10:17:01;;;;;;;;;;;10.50;99.90;;;;;;5004047;28;20057;-73
2022/11/14 10:19:58;;;;;;;70.78;45.58;;;10.50;99.90;;;;;;5001499;28;19971;-73
2022/11/14 10:23:01;;;;;;;71.20;48.33;;;10.70;99.90;;;;;;5014536;28;20099;-75
2022/11/14 10:26:17;;;;;;;70.18;49.90;;;10.70;99.90;;;;;;5003008;28;20041;-73
2022/11/14 10:29:17;;;;;;;79.45;48.15;;;10.70;99.90;;;;;;4972615;28;20080;-72
2022/11/14 10:32:37;;;;;;;83.53;51.58;;;10.70;99.90;;;;;;4972837;28;20057;-74
2022/11/14 10:35:28;;;;;;;78.18;47.83;;;10.70;99.90;;;;;;4922748;29;20042;-73
2022/11/14 10:38:28;;;;;;;77.78;47.65;;;10.70;99.90;;;;;;4934430;29;20130;-73
2022/11/14 10:41:13;;;;;;;66.25;46.70;;;10.70;99.90;;;;;;4926532;29;20067;-73
2022/11/14 10:43:57;;;;;;;77.40;50.63;;;10.80;99.90;;;;;;4919745;29;20083;-73
2022/11/14 10:46:50;;;;;;;74.20;47.25;;;10.90;99.90;;;;;;4929241;28;20138;-75
2022/11/14 10:49:36;;;;;;;76.28;52.58;;;11.00;99.90;;;;;;4933991;29;20588;-73
2022/11/14 10:52:24;;;;;;;74.15;47.90;;;11.00;99.90;;;;;;4933539;29;20170;-74
2022/11/14 10:55:17;;;;;;;67.20;46.60;;;11.10;99.90;;;;;;4932625;29;20043;-73
2022/11/14 10:58:07;;;;;;;70.82;47.17;;;11.20;99.90;;;;;;4920259;29;20046;-74
2022/11/14 11:00:51;;;;;;;72.13;48.03;;;11.30;99.90;;;;;;4934032;29;20119;-73
2022/11/14 11:03:43;;;;;;;69.35;47.08;;;11.20;99.90;;;;;;4933617;28;20093;-75
2022/11/14 11:06:28;;;;;;;66.18;44.47;;;11.20;99.90;;;;;;4972274;28;20211;-74
2022/11/14 11:12:40;;;;;;;68.00;42.45;;;11.30;99.90;;;;;;5009884;28;20463;-73
2022/11/14 11:15:30;;;;;;;68.97;43.30;;;11.30;99.90;;;;;;5013017;28;20033;-72
2022/11/14 11:18:29;;;;;;;63.67;44.05;;;11.40;99.90;;;;;;5013164;28;20060;-72
2022/11/14 11:21:16;;;;;;;67.32;43.83;;;11.60;99.90;;;;;;5003362;28;20071;-72
2022/11/14 11:24:00;;;;;;;65.57;42.97;;;11.70;99.90;;;;;;5013533;28;20080;-76
2022/11/14 11:26:45;;;;;;;65.20;43.75;;;11.80;99.90;;;;;;5013400;28;20392;-72
2022/11/14 11:29:29;;;;;;;65.05;43.05;;;12.00;99.90;;;;;;4999136;28;20121;-72
2022/11/14 11:32:25;;;;;;;62.50;44.58;;;12.10;99.90;;;;;;5007885;28;20045;-71
2022/11/14 11:35:12;;;;;;;62.25;44.70;;;12.00;99.90;;;;;;5009710;28;20045;-72
2022/11/14 11:38:01;;;;;;;65.45;42.60;;;12.20;99.90;;;;;;5011839;28;20044;-76
2022/11/14 11:40:53;;;;;;;61.15;43.75;;;12.30;99.90;;;;;;5013083;28;20077;-72
2022/11/14 11:43:53;;;;;;;54.65;38.63;;;12.30;99.90;;;;;;5012503;28;20044;-73
2022/11/14 11:46:43;;;;;;;55.75;39.92;;;12.30;99.90;;;;;;5013324;28;20044;-71
2022/11/14 11:49:34;;;;;;;57.83;42.28;;;12.20;99.90;;;;;;5002493;28;20507;-72
2022/11/14 11:52:38;;;;;;;58.35;40.70;;;12.40;99.90;;;;;;5013033;28;20144;-71
2022/11/14 11:55:32;;;;;;;63.95;42.63;;;12.50;99.90;;;;;;5012738;28;20084;-76
2022/11/14 11:58:31;;;;;;;55.78;40.08;;;12.50;99.90;;;;;;5012982;28;20563;-71
2022/11/14 12:01:16;;;;;;;60.97;40.00;;;12.40;99.90;;;;;;5007457;28;20037;-71
2022/11/14 12:04:02;;;;;;;60.00;39.72;;;12.60;99.90;;;;;;5012486;28;20103;-70
2022/11/14 12:06:58;;;;;;;60.85;40.67;;;12.70;99.90;;;;;;5012884;28;20101;-72
2022/11/14 12:09:42;;;;;;;56.53;39.33;;;12.90;99.90;;;;;;5001598;28;20084;-71
2022/11/14 12:12:42;;;;;;;55.90;40.50;;;12.90;99.90;;;;;;5012395;28;20056;-71
2022/11/14 12:15:56;;;;;;;52.97;39.33;;;13.00;99.90;;;;;;5013086;28;20140;-71
2022/11/14 12:18:43;;;;;;;59.10;40.75;;;13.10;99.90;;;;;;5012270;28;20100;-70
2022/11/14 12:21:47;;;;;;;56.17;40.42;;;13.10;99.90;;;;;;5012826;28;20037;-71
2022/11/14 12:25:02;;;;;;;61.88;43.65;;;13.10;99.90;;;;;;5011494;28;20109;-71
2022/11/14 12:28:28;;;;;;;58.08;42.70;;;13.20;99.90;;;;;;4951525;28;20465;-70
2022/11/14 12:31:15;;;;;;;66.50;42.80;;;13.30;99.90;;;;;;4892963;29;20107;-71
2022/11/14 12:34:12;;;;;;;54.80;39.63;;;13.30;99.90;;;;;;4894673;29;20119;-71
2022/11/14 12:36:57;;;;;;;54.88;39.92;;;13.40;99.90;;;;;;4894970;29;20052;-71
2022/11/14 12:39:53;;;;;;;57.63;41.65;;;13.40;99.90;;;;;;4894285;29;20036;-74
2022/11/14 12:42:44;;;;;;;53.50;39.35;;;13.40;99.90;;;;;;4893198;29;20412;-71
2022/11/14 12:45:40;;;;;;;55.72;36.45;;;13.50;99.90;;;;;;4874104;29;20122;-71
2022/11/14 12:48:24;;;;;;;56.17;40.53;;;13.60;99.90;;;;;;4892014;29;20047;-72
2022/11/14 12:51:24;;;;;;;54.50;38.65;;;13.70;99.90;;;;;;4888045;29;20307;-70
2022/11/14 12:54:42;;;;;;;56.15;40.63;;;13.80;99.90;;;;;;4883813;29;20775;-71
2022/11/14 12:58:04;;;;;;;58.90;42.20;;;13.80;99.90;;;;;;4902413;29;20100;-71
2022/11/14 13:00:48;;;;;;;56.53;40.25;;;13.80;99.90;;;;;;4882866;29;20038;-72
2022/11/14 13:03:58;;;;;;;54.00;40.78;;;13.80;99.90;;;;;;4903813;28;20068;-72
2022/11/14 13:06:58;;;;;;;57.72;42.38;;;13.80;99.90;;;;;;4970431;28;20044;-72
2022/11/14 13:10:20;;;;;;;61.20;42.58;;;13.90;99.90;;;;;;4991266;28;20494;-75
2022/11/14 13:22:45;;;;;;;59.05;41.65;;;13.80;99.90;;;;;;4995426;28;20084;-72
2022/11/14 13:25:29;;;;;;;56.63;40.90;;;13.80;99.90;;;;;;4994687;28;20093;-74
2022/11/14 13:28:36;;;;;;;60.80;40.10;;;13.90;99.90;;;;;;5006572;28;20041;-75
2022/11/14 13:31:22;;;;;;;61.17;41.55;;;13.80;99.90;;;;;;5001524;28;20049;-74
2022/11/14 13:34:38;;;;;;;51.72;37.10;;;13.80;99.90;;;;;;4998669;28;20535;-74
2022/11/14 13:37:56;;;;;;;57.00;41.15;;;13.80;99.90;;;;;;5003041;28;20053;-74
2022/11/14 13:41:12;;;;;;;51.72;38.03;;;13.70;99.90;;;;;;4942634;29;20050;-73
2022/11/14 13:44:15;;;;;;;54.45;37.75;;;13.60;99.90;;;;;;4955286;29;20086;-74
2022/11/14 13:47:20;;;;;;;51.78;38.45;;;13.60;99.90;;;;;;4954378;29;20066;-74
2022/11/14 13:50:12;;;;;;;50.20;38.05;;;13.50;99.90;;;;;;4955002;29;20110;-74
2022/11/14 13:52:58;;;;;;;67.22;44.60;;;13.50;99.90;;;;;;4954852;29;20050;-75
2022/11/14 13:56:06;;;;;;;65.97;46.30;;;13.50;99.90;;;;;;4954747;29;20115;-74
2022/11/14 13:59:13;;;;;;;68.68;47.05;;;13.40;99.90;;;;;;4954767;29;20050;-74
2022/11/14 14:02:09;;;;;;;67.80;47.85;;;13.50;99.90;;;;;;4954227;29;20038;-74
2022/11/14 14:05:21;;;;;;;68.90;48.10;;;13.40;99.90;;;;;;4954396;29;20118;-73
2022/11/14 14:08:32;;;;;;;62.42;43.22;;;13.40;99.90;;;;;;4943146;29;20043;-74
2022/11/14 14:11:30;;;;;;;62.33;43.80;;;13.40;99.90;;;;;;4953844;29;20046;-74
2022/11/14 14:14:44;;;;;;;66.13;47.92;;;13.30;99.90;;;;;;4953933;29;20062;-74
2022/11/14 14:17:40;;;;;;;77.35;49.15;;;13.30;99.90;;;;;;4988445;28;20084;-74
2022/11/14 14:20:48;;;;;;;67.10;45.58;;;13.30;99.90;;;;;;5002556;28;20052;-73
2022/11/14 14:23:38;;;;;;;77.35;51.33;;;13.30;99.90;;;;;;5014740;28;20076;-72
2022/11/14 14:26:39;;;;;;;72.43;51.75;;;13.30;99.90;;;;;;5013205;28;20117;-72
2022/11/14 14:29:37;;;;;;;71.00;48.75;;;13.30;99.90;;;;;;5014919;28;20080;-72
2022/11/14 14:32:23;;;;;;;66.50;50.75;;;13.30;99.90;;;;;;5014543;28;20528;-73